createdAt,value
2023-05-16T00:01:42.132Z,74.50
2023-05-16T00:03:45.513Z,74.41
2023-05-16T00:05:48.450Z,73.90
2023-05-16T00:07:51.041Z,74.59
2023-05-16T00:09:53.657Z,74.17
2023-05-16T00:11:56.322Z,74.31
2023-05-16T00:13:58.861Z,74.31
2023-05-16T00:16:05.093Z,74.55
2023-05-16T00:18:07.759Z,74.60
2023-05-16T00:20:12.011Z,74.17
2023-05-16T00:22:14.568Z,74.22
2023-05-16T00:24:17.176Z,74.33
2023-05-16T00:26:22.227Z,74.45
2023-05-16T00:28:24.919Z,74.17
2023-05-16T00:30:27.712Z,74.16
2023-05-16T00:32:32.648Z,74.34
2023-05-16T00:34:35.454Z,74.31
2023-05-16T00:36:38.064Z,74.43
2023-05-16T00:38:40.622Z,74.14
2023-05-16T00:40:43.170Z,73.95
2023-05-16T00:42:45.766Z,74.11
2023-05-16T00:44:48.596Z,74.43
2023-05-16T00:46:51.768Z,74.32
2023-05-16T00:48:55.798Z,73.96
2023-05-16T00:50:58.582Z,74.06
2023-05-16T00:53:01.198Z,73.94
2023-05-16T00:55:04.468Z,74.01
2023-05-16T00:57:07.718Z,74.40
2023-05-16T00:59:11.036Z,74.29
2023-05-16T01:01:14.310Z,74.24
2023-05-16T01:03:17.190Z,74.42
2023-05-16T01:05:21.601Z,74.00
2023-05-16T01:07:24.710Z,74.43
2023-05-16T01:09:27.302Z,74.29
2023-05-16T01:11:35.361Z,74.42
2023-05-16T01:13:45.748Z,74.64
2023-05-16T01:15:55.209Z,74.68
2023-05-16T01:18:04.621Z,74.63
2023-05-16T01:20:15.354Z,73.76
2023-05-16T01:22:32.067Z,74.43
2023-05-16T01:24:40.567Z,74.49
2023-05-16T01:26:46.068Z,76.30
2023-05-16T01:28:49.999Z,77.01
2023-05-16T01:30:52.728Z,77.40
2023-05-16T01:32:55.347Z,77.66
2023-05-16T01:34:57.972Z,76.07
2023-05-16T01:37:10.218Z,76.08
2023-05-16T01:39:19.787Z,76.08
2023-05-16T01:41:28.836Z,76.28
2023-05-16T01:43:36.468Z,76.49
2023-05-16T01:45:45.094Z,76.26
2023-05-16T01:47:56.511Z,76.33
2023-05-16T01:50:04.889Z,76.91
2023-05-16T01:52:12.577Z,76.26
2023-05-16T01:54:18.053Z,76.39
2023-05-16T01:56:21.657Z,76.73
2023-05-16T01:58:29.520Z,76.78
2023-05-16T02:00:33.846Z,76.54
2023-05-16T02:02:36.459Z,76.02
2023-05-16T02:04:39.082Z,76.70
2023-05-16T02:06:41.941Z,76.50
2023-05-16T02:08:44.798Z,76.29
2023-05-16T02:10:48.565Z,77.10
2023-05-16T02:12:51.828Z,77.74
2023-05-16T02:14:54.376Z,77.92
2023-05-16T02:16:58.640Z,77.67
2023-05-16T02:19:01.263Z,77.58
2023-05-16T02:21:03.915Z,77.10
2023-05-16T02:23:06.527Z,77.46
2023-05-16T02:25:10.111Z,77.64
2023-05-16T02:27:12.659Z,77.71
2023-05-16T02:29:16.488Z,77.30
2023-05-16T02:31:27.449Z,77.65
2023-05-16T02:33:31.592Z,77.98
2023-05-16T02:35:34.197Z,77.08
2023-05-16T02:37:36.962Z,77.50
2023-05-16T02:39:39.607Z,77.98
2023-05-16T02:41:42.170Z,78.08
2023-05-16T02:43:46.925Z,78.02
2023-05-16T02:45:49.739Z,77.83
2023-05-16T02:47:52.402Z,78.09
2023-05-16T02:49:59.340Z,78.00
2023-05-16T02:52:05.247Z,77.89
2023-05-16T02:54:09.866Z,77.98
2023-05-16T02:56:12.620Z,78.02
2023-05-16T02:58:15.265Z,78.12
2023-05-16T03:00:18.861Z,78.35
2023-05-16T03:02:22.180Z,78.44
2023-05-16T03:04:25.376Z,78.65
2023-05-16T03:06:30.280Z,78.39
2023-05-16T03:08:33.067Z,78.73
2023-05-16T03:10:35.674Z,78.52
2023-05-16T03:12:38.205Z,78.64
2023-05-16T03:14:40.819Z,78.43
2023-05-16T03:16:43.993Z,78.31
2023-05-16T03:18:46.674Z,78.32
2023-05-16T03:20:49.312Z,78.26
2023-05-16T03:22:53.324Z,77.96
2023-05-16T03:24:56.349Z,77.98
2023-05-16T03:26:59.287Z,78.00
2023-05-16T03:29:01.820Z,77.76
2023-05-16T03:31:04.466Z,78.18
2023-05-16T03:33:07.118Z,78.14
2023-05-16T03:35:11.957Z,78.42
2023-05-16T03:37:16.070Z,78.74
2023-05-16T03:39:20.031Z,78.60
2023-05-16T03:41:22.783Z,78.85
2023-05-16T03:43:25.398Z,78.83
2023-05-16T03:45:28.253Z,78.92
2023-05-16T03:47:31.997Z,78.84
2023-05-16T03:49:34.827Z,78.89
2023-05-16T03:51:37.400Z,79.31
2023-05-16T03:53:39.984Z,79.12
2023-05-16T03:55:44.035Z,79.04
2023-05-16T03:57:47.838Z,78.71
2023-05-16T03:59:50.500Z,78.60
2023-05-16T04:01:53.112Z,78.70
2023-05-16T04:03:55.792Z,78.58
2023-05-16T04:05:58.715Z,78.63
2023-05-16T04:08:01.290Z,78.53
2023-05-16T04:10:04.367Z,78.80
2023-05-16T04:12:11.946Z,78.86
2023-05-16T04:14:15.468Z,79.29
2023-05-16T04:16:18.046Z,79.56
2023-05-16T04:18:20.862Z,79.69
2023-05-16T04:20:23.456Z,79.93
2023-05-16T04:22:26.086Z,79.59
2023-05-16T04:24:29.032Z,79.89
2023-05-16T04:26:31.873Z,79.74
2023-05-16T04:28:35.868Z,79.78
2023-05-16T04:30:38.533Z,79.59
2023-05-16T04:32:41.245Z,79.38
2023-05-16T04:34:45.304Z,79.49
2023-05-16T04:36:47.858Z,79.15
2023-05-16T04:38:50.849Z,78.86
2023-05-16T04:40:53.514Z,78.82
2023-05-16T04:42:56.107Z,78.70
2023-05-16T04:45:00.011Z,78.39
2023-05-16T04:47:02.755Z,78.14
2023-05-16T04:49:05.498Z,77.99
2023-05-16T04:51:08.324Z,77.92
2023-05-16T04:53:10.929Z,77.62
2023-05-16T04:55:13.480Z,77.30
2023-05-16T04:57:16.036Z,77.21
2023-05-16T04:59:18.610Z,77.28
2023-05-16T05:01:22.583Z,76.79
2023-05-16T05:03:25.261Z,77.19
2023-05-16T05:05:28.101Z,77.20
2023-05-16T05:07:31.187Z,77.26
2023-05-16T05:09:33.958Z,77.15
2023-05-16T05:11:36.860Z,77.26
2023-05-16T05:13:39.436Z,77.23
2023-05-16T05:15:42.073Z,77.29
2023-05-16T05:17:46.025Z,77.38
2023-05-16T05:19:49.130Z,77.40
2023-05-16T05:21:51.703Z,77.25
2023-05-16T05:23:54.225Z,77.39
2023-05-16T05:25:56.912Z,77.39
2023-05-16T05:27:59.466Z,77.48
2023-05-16T05:30:02.039Z,77.19
2023-05-16T05:32:05.048Z,77.14
2023-05-16T05:34:09.043Z,76.94
2023-05-16T05:36:12.345Z,77.16
2023-05-16T05:38:14.915Z,77.08
2023-05-16T05:40:17.703Z,77.25
2023-05-16T05:42:20.331Z,77.30
2023-05-16T05:44:22.917Z,77.37
2023-05-16T05:46:26.318Z,77.49
2023-05-16T05:48:29.932Z,77.49
2023-05-16T05:50:34.096Z,77.43
2023-05-16T05:52:36.667Z,77.61
2023-05-16T05:54:39.246Z,77.58
2023-05-16T05:56:42.161Z,77.38
2023-05-16T05:58:45.358Z,77.72
2023-05-16T06:00:47.913Z,77.52
2023-05-16T06:02:50.932Z,77.49
2023-05-16T06:04:53.628Z,77.68
2023-05-16T06:06:57.732Z,77.56
2023-05-16T06:09:00.471Z,77.53
2023-05-16T06:11:03.045Z,77.62
2023-05-16T06:13:05.623Z,77.81
2023-05-16T06:15:09.556Z,77.76
2023-05-16T06:17:12.286Z,77.67
2023-05-16T06:19:16.465Z,77.64
2023-05-16T06:21:19.080Z,77.63
2023-05-16T06:23:23.306Z,77.43
2023-05-16T06:25:26.101Z,77.55
2023-05-16T06:27:28.883Z,77.74
2023-05-16T06:29:31.509Z,77.78
2023-05-16T06:31:34.213Z,77.83
2023-05-16T06:33:36.852Z,77.93
2023-05-16T06:35:40.652Z,77.97
2023-05-16T06:37:43.343Z,78.09
2023-05-16T06:39:47.280Z,78.03
2023-05-16T06:41:49.846Z,78.34
2023-05-16T06:43:52.636Z,78.32
2023-05-16T06:45:55.221Z,78.38
2023-05-16T06:47:58.106Z,78.44
2023-05-16T06:50:00.927Z,78.54
2023-05-16T06:52:03.725Z,78.62
2023-05-16T06:54:06.435Z,78.75
2023-05-16T06:56:10.526Z,78.47
2023-05-16T06:58:13.239Z,78.62
2023-05-16T07:00:16.899Z,78.71
2023-05-16T07:02:19.523Z,78.60
2023-05-16T07:04:22.167Z,78.89
2023-05-16T07:06:24.804Z,78.97
2023-05-16T07:08:27.497Z,78.66
2023-05-16T07:10:30.103Z,78.67
2023-05-16T07:12:34.033Z,78.77
2023-05-16T07:14:36.649Z,78.65
2023-05-16T07:16:39.388Z,78.67
2023-05-16T07:18:42.279Z,78.27
2023-05-16T07:20:45.891Z,78.24
2023-05-16T07:22:48.485Z,78.71
2023-05-16T07:24:53.228Z,78.52
2023-05-16T07:26:55.837Z,78.58
2023-05-16T07:28:59.969Z,78.43
2023-05-16T07:31:02.626Z,78.30
2023-05-16T07:33:05.910Z,78.15
2023-05-16T07:35:09.597Z,78.09
2023-05-16T07:37:13.068Z,77.96
2023-05-16T07:39:16.210Z,77.77
2023-05-16T07:41:18.968Z,77.49
2023-05-16T07:43:21.563Z,76.82
2023-05-16T07:45:25.838Z,77.05
2023-05-16T07:47:29.167Z,77.06
2023-05-16T07:49:31.860Z,77.01
2023-05-16T07:51:34.465Z,76.83
2023-05-16T07:53:37.128Z,76.69
2023-05-16T07:55:39.785Z,76.64
2023-05-16T07:57:43.685Z,76.60
2023-05-16T07:59:46.931Z,76.61
2023-05-16T08:01:51.380Z,76.46
2023-05-16T08:03:54.051Z,76.61
2023-05-16T08:05:56.716Z,76.66
2023-05-16T08:07:59.518Z,76.63
2023-05-16T08:10:02.134Z,76.67
2023-05-16T08:12:05.124Z,76.66
2023-05-16T08:14:07.995Z,76.61
2023-05-16T08:16:11.733Z,76.42
2023-05-16T08:18:16.657Z,76.55
2023-05-16T08:20:19.544Z,76.59
2023-05-16T08:22:22.160Z,76.54
2023-05-16T08:24:24.769Z,76.62
2023-05-16T08:26:27.486Z,76.44
2023-05-16T08:28:30.193Z,76.25
2023-05-16T08:30:32.784Z,76.02
2023-05-16T08:32:35.670Z,75.51
2023-05-16T08:34:39.667Z,75.03
2023-05-16T08:36:42.235Z,74.76
2023-05-16T08:38:44.965Z,74.51
2023-05-16T08:40:47.852Z,74.28
2023-05-16T08:42:50.601Z,74.07
2023-05-16T08:44:53.311Z,74.02
2023-05-16T08:46:56.274Z,73.64
2023-05-16T08:49:01.198Z,72.93
2023-05-16T08:51:07.516Z,72.76
2023-05-16T08:53:11.492Z,73.01
2023-05-16T08:55:16.158Z,72.89
2023-05-16T08:57:19.384Z,72.74
2023-05-16T08:59:22.172Z,72.71
2023-05-16T09:01:25.077Z,72.72
2023-05-16T09:03:28.975Z,72.75
2023-05-16T09:05:32.062Z,72.53
2023-05-16T09:07:36.089Z,72.17
2023-05-16T09:09:38.840Z,71.85
2023-05-16T09:11:41.466Z,72.56
2023-05-16T09:13:44.670Z,72.80
2023-05-16T09:15:47.255Z,73.01
2023-05-16T09:17:50.010Z,73.14
2023-05-16T09:19:59.880Z,73.42
2023-05-16T09:22:03.693Z,73.48
2023-05-16T09:24:09.487Z,73.64
2023-05-16T09:26:12.959Z,73.85
2023-05-16T09:28:15.674Z,73.84
2023-05-16T09:30:22.637Z,73.02
2023-05-16T09:32:25.816Z,73.52
2023-05-16T09:34:28.435Z,73.71
2023-05-16T09:36:32.934Z,73.67
2023-05-16T09:38:35.526Z,73.49
2023-05-16T09:40:42.475Z,73.74
2023-05-16T09:42:45.106Z,73.66
2023-05-16T09:44:48.720Z,73.87
2023-05-16T09:46:51.511Z,73.99
2023-05-16T09:48:54.236Z,74.13
2023-05-16T09:51:03.390Z,74.31
2023-05-16T09:53:07.018Z,74.49
2023-05-16T09:55:10.286Z,74.63
2023-05-16T09:57:14.221Z,74.78
2023-05-16T09:59:17.120Z,74.45
2023-05-16T10:01:19.787Z,74.40
2023-05-16T10:03:22.874Z,74.15
2023-05-16T10:05:27.608Z,73.69
2023-05-16T10:07:33.727Z,74.46
2023-05-16T10:09:40.722Z,73.98
2023-05-16T10:11:44.126Z,74.52
2023-05-16T10:13:53.094Z,75.08
2023-05-16T10:15:58.012Z,75.40
2023-05-16T10:18:03.606Z,75.46
2023-05-16T10:20:09.254Z,75.38
2023-05-16T10:22:14.072Z,75.38
2023-05-16T10:24:24.958Z,75.67
2023-05-16T10:26:28.032Z,75.55
2023-05-16T10:28:31.097Z,75.64
2023-05-16T10:30:36.073Z,75.58
2023-05-16T10:32:41.914Z,75.30
2023-05-16T10:34:47.405Z,75.61
2023-05-16T10:36:50.626Z,75.53
2023-05-16T10:38:53.966Z,75.94
2023-05-16T10:40:57.551Z,75.87
2023-05-16T10:43:01.970Z,75.89
2023-05-16T10:45:16.874Z,75.57
2023-05-16T10:47:21.516Z,75.37
2023-05-16T10:49:25.820Z,75.98
2023-05-16T10:51:36.748Z,76.22
2023-05-16T10:53:39.524Z,75.84
2023-05-16T10:55:46.249Z,76.18
2023-05-16T10:57:48.939Z,76.63
2023-05-16T10:59:53.844Z,77.15
2023-05-16T11:01:57.534Z,77.60
2023-05-16T11:04:10.336Z,77.75
2023-05-16T11:06:13.814Z,77.56
2023-05-16T11:08:16.497Z,77.54
2023-05-16T11:10:19.096Z,77.66
2023-05-16T11:12:22.012Z,77.58
2023-05-16T11:14:26.375Z,77.61
2023-05-16T11:16:29.705Z,77.59
2023-05-16T11:18:34.050Z,77.49
2023-05-16T11:20:39.194Z,78.04
2023-05-16T11:22:42.238Z,78.17
2023-05-16T11:24:57.034Z,78.04
2023-05-16T11:27:00.958Z,78.16
2023-05-16T11:29:04.655Z,78.13
2023-05-16T11:31:07.359Z,78.17
2023-05-16T11:33:10.040Z,78.19
2023-05-16T11:35:15.126Z,78.04
2023-05-16T11:37:21.023Z,77.85
2023-05-16T11:39:25.083Z,77.47
2023-05-16T11:41:27.689Z,77.74
2023-05-16T11:43:30.394Z,77.81
2023-05-16T11:45:32.994Z,77.78
2023-05-16T11:47:38.004Z,77.63
2023-05-16T11:49:41.519Z,77.63
2023-05-16T11:51:44.366Z,77.54
2023-05-16T11:53:50.048Z,77.35
2023-05-16T11:55:55.680Z,77.29
2023-05-16T11:57:59.343Z,77.12
2023-05-16T12:00:06.460Z,76.99
2023-05-16T12:02:09.832Z,77.03
2023-05-16T12:04:14.136Z,77.11
2023-05-16T12:06:17.108Z,77.11
2023-05-16T12:08:20.612Z,77.04
2023-05-16T12:10:24.597Z,77.32
2023-05-16T12:12:27.237Z,76.99
2023-05-16T12:14:32.507Z,76.81
2023-05-16T12:16:37.014Z,76.79
2023-05-16T12:18:43.189Z,76.79
2023-05-16T12:20:46.361Z,76.48
2023-05-16T12:22:48.976Z,77.00
2023-05-16T12:24:51.545Z,77.01
2023-05-16T12:26:55.476Z,77.03
2023-05-16T12:29:00.931Z,76.89
2023-05-16T12:31:03.656Z,76.75
2023-05-16T12:33:10.618Z,76.73
2023-05-16T12:35:13.928Z,76.62
2023-05-16T12:37:16.608Z,76.35
2023-05-16T12:39:19.743Z,76.40
2023-05-16T12:41:23.727Z,76.45
2023-05-16T12:43:28.643Z,76.26
2023-05-16T12:45:32.333Z,76.22
2023-05-16T12:47:38.000Z,76.23
2023-05-16T12:49:45.766Z,76.45
2023-05-16T12:51:52.168Z,76.70
2023-05-16T12:54:05.601Z,76.50
2023-05-16T12:56:12.938Z,76.41
2023-05-16T12:58:16.472Z,76.43
2023-05-16T13:00:21.798Z,76.30
2023-05-16T13:02:24.564Z,76.10
2023-05-16T13:04:27.203Z,76.20
2023-05-16T13:06:36.706Z,76.17
2023-05-16T13:08:47.829Z,76.09
2023-05-16T13:10:50.974Z,75.23
2023-05-16T13:12:53.893Z,75.78
2023-05-16T13:14:56.883Z,76.07
2023-05-16T13:17:00.802Z,75.88
2023-05-16T13:19:03.695Z,75.68
2023-05-16T13:21:06.838Z,75.63
2023-05-16T13:23:09.428Z,75.19
2023-05-16T13:25:12.781Z,75.51
2023-05-16T13:27:17.363Z,75.58
2023-05-16T13:29:19.925Z,75.64
2023-05-16T13:31:23.187Z,75.59
2023-05-16T13:33:27.332Z,75.02
2023-05-16T13:35:30.254Z,74.59
2023-05-16T13:37:33.009Z,74.73
2023-05-16T13:39:36.158Z,74.88
2023-05-16T13:41:40.327Z,75.00
2023-05-16T13:43:42.939Z,74.60
2023-05-16T13:45:45.624Z,74.29
2023-05-16T13:47:48.449Z,73.96
2023-05-16T13:49:52.486Z,74.12
2023-05-16T13:51:55.177Z,74.13
2023-05-16T13:53:57.755Z,74.19
2023-05-16T13:56:00.643Z,74.17
2023-05-16T13:58:03.277Z,73.42
2023-05-16T14:00:35.373Z,73.38
2023-05-16T14:02:34.829Z,73.28
2023-05-16T14:04:37.467Z,72.87
2023-05-16T14:06:41.496Z,73.11
2023-05-16T14:08:44.109Z,73.06
2023-05-16T14:10:46.748Z,72.12
2023-05-16T14:12:50.661Z,72.21
2023-05-16T14:14:54.708Z,72.53
2023-05-16T14:16:57.293Z,72.67
2023-05-16T14:19:00.004Z,71.97
2023-05-16T14:21:02.636Z,72.24
2023-05-16T14:23:06.923Z,72.01
2023-05-16T14:25:10.034Z,72.05
2023-05-16T14:27:12.675Z,71.98
2023-05-16T14:29:15.326Z,71.99
2023-05-16T14:31:17.964Z,71.35
2023-05-16T14:33:20.677Z,71.32
2023-05-16T14:35:23.365Z,71.10
2023-05-16T14:37:25.991Z,71.45
2023-05-16T14:39:32.420Z,71.24
2023-05-16T14:41:35.022Z,71.36
2023-05-16T14:43:38.452Z,71.18
2023-05-16T14:45:41.587Z,70.95
2023-05-16T14:47:44.649Z,71.12
2023-05-16T14:49:47.396Z,71.42
2023-05-16T14:51:50.867Z,71.33
2023-05-16T14:53:53.473Z,71.10
2023-05-16T14:55:57.534Z,71.00
2023-05-16T14:58:00.376Z,71.26
2023-05-16T15:00:03.312Z,71.37
2023-05-16T15:02:06.577Z,71.38
2023-05-16T15:04:09.341Z,71.17
2023-05-16T15:06:11.968Z,70.99
2023-05-16T15:08:14.589Z,71.27
2023-05-16T15:10:19.672Z,71.22
2023-05-16T15:12:23.772Z,71.22
2023-05-16T15:14:27.095Z,71.26
2023-05-16T15:16:30.778Z,71.26
2023-05-16T15:18:33.595Z,71.42
2023-05-16T15:20:36.226Z,71.46
2023-05-16T15:22:40.473Z,71.29
2023-05-16T15:24:43.131Z,71.30
2023-05-16T15:26:45.759Z,71.45
2023-05-16T15:28:50.295Z,71.52
2023-05-16T15:30:54.449Z,71.71
2023-05-16T15:32:57.110Z,71.60
2023-05-16T15:34:59.715Z,71.42
2023-05-16T15:37:02.489Z,71.33
2023-05-16T15:39:05.610Z,71.18
2023-05-16T15:41:24.003Z,71.58
2023-05-16T15:43:31.714Z,71.40
2023-05-16T15:45:39.908Z,71.42
2023-05-16T15:47:43.104Z,71.28
2023-05-16T15:49:45.736Z,71.24
2023-05-16T15:51:48.431Z,71.33
2023-05-16T15:53:51.170Z,71.37
2023-05-16T15:55:53.790Z,71.31
2023-05-16T15:57:57.381Z,71.08
2023-05-16T16:00:00.085Z,71.24
2023-05-16T16:02:05.446Z,71.10
2023-05-16T16:04:08.687Z,70.96
2023-05-16T16:06:11.311Z,70.82
2023-05-16T16:08:13.963Z,70.67
2023-05-16T16:10:16.595Z,71.10
2023-05-16T16:12:19.228Z,71.03
2023-05-16T16:14:21.848Z,71.29
2023-05-16T16:16:24.594Z,71.21
2023-05-16T16:18:28.645Z,71.27
2023-05-16T16:20:31.268Z,71.16
2023-05-16T16:22:33.884Z,71.23
2023-05-16T16:24:36.562Z,70.83
2023-05-16T16:26:39.236Z,71.13
2023-05-16T16:28:41.874Z,70.84
2023-05-16T16:30:47.238Z,70.92
2023-05-16T16:32:49.875Z,70.63
2023-05-16T16:34:53.832Z,69.71
2023-05-16T16:36:56.396Z,70.09
2023-05-16T16:38:59.351Z,70.33
2023-05-16T16:41:01.978Z,70.51
2023-05-16T16:43:06.043Z,69.77
2023-05-16T16:45:09.649Z,69.64
2023-05-16T16:47:12.470Z,69.71
2023-05-16T16:49:15.218Z,69.81
2023-05-16T16:51:19.181Z,69.93
2023-05-16T16:53:21.768Z,69.88
2023-05-16T16:55:24.382Z,69.93
2023-05-16T16:57:27.222Z,69.81
2023-05-16T16:59:29.963Z,69.75
2023-05-16T17:01:32.859Z,69.84
2023-05-16T17:03:36.134Z,69.59
2023-05-16T17:05:38.976Z,69.36
2023-05-16T17:07:44.364Z,69.11
2023-05-16T17:09:47.070Z,68.86
2023-05-16T17:11:49.829Z,68.37
2023-05-16T17:13:54.571Z,67.95
2023-05-16T17:15:57.543Z,67.32
2023-05-16T17:18:00.262Z,66.69
2023-05-16T17:20:07.315Z,66.82
2023-05-16T17:22:10.123Z,66.98
2023-05-16T17:24:14.190Z,66.95
2023-05-16T17:26:17.265Z,67.14
2023-05-16T17:28:20.039Z,67.12
2023-05-16T17:30:23.452Z,66.11
2023-05-16T17:32:26.569Z,66.50
2023-05-16T17:34:29.568Z,66.16
2023-05-16T17:36:32.300Z,65.52
2023-05-16T17:38:35.364Z,65.41
2023-05-16T17:40:39.306Z,65.29
2023-05-16T17:42:41.885Z,65.53
2023-05-16T17:44:44.491Z,65.25
2023-05-16T17:46:47.152Z,65.15
2023-05-16T17:48:50.016Z,64.91
2023-05-16T17:50:52.618Z,65.07
2023-05-16T17:52:55.494Z,64.93
2023-05-16T17:54:59.036Z,64.67
2023-05-16T17:57:02.976Z,64.62
2023-05-16T17:59:05.890Z,64.23
2023-05-16T18:01:10.227Z,64.17
2023-05-16T18:03:13.592Z,63.45
2023-05-16T18:05:17.028Z,63.01
2023-05-16T18:07:20.531Z,62.65
2023-05-16T18:09:23.391Z,62.73
2023-05-16T18:11:26.093Z,62.61
2023-05-16T18:13:30.876Z,62.73
2023-05-16T18:15:35.323Z,62.77
2023-05-16T18:17:38.209Z,62.95
2023-05-16T18:19:40.993Z,62.86
2023-05-16T18:21:44.861Z,62.68
2023-05-16T18:23:48.528Z,62.58
2023-05-16T18:25:51.768Z,62.46
2023-05-16T18:27:54.441Z,62.48
2023-05-16T18:29:58.487Z,62.48
2023-05-16T18:32:01.128Z,62.45
2023-05-16T18:34:03.801Z,62.50
2023-05-16T18:36:06.796Z,62.69
2023-05-16T18:38:17.429Z,62.72
2023-05-16T18:40:31.386Z,62.71
2023-05-16T18:42:33.969Z,62.69
2023-05-16T18:44:36.745Z,62.79
2023-05-16T18:46:40.757Z,62.80
2023-05-16T18:48:43.387Z,62.82
2023-05-16T18:50:47.539Z,62.91
2023-05-16T18:52:57.290Z,62.93
2023-05-16T18:54:59.928Z,63.09
2023-05-16T18:57:03.508Z,63.13
2023-05-16T18:59:06.626Z,63.43
2023-05-16T19:01:09.487Z,63.70
2023-05-16T19:03:13.926Z,64.12
2023-05-16T19:05:16.718Z,64.39
2023-05-16T19:07:19.587Z,64.43
2023-05-16T19:09:22.251Z,64.44
2023-05-16T19:11:24.874Z,64.15
2023-05-16T19:13:27.497Z,63.92
2023-05-16T19:15:30.185Z,64.00
2023-05-16T19:17:33.045Z,64.13
2023-05-16T19:19:37.193Z,64.30
2023-05-16T19:21:40.412Z,64.05
2023-05-16T19:23:43.022Z,64.14
2023-05-16T19:25:48.943Z,64.41
2023-05-16T19:27:52.087Z,64.44
2023-05-16T19:29:54.710Z,64.88
2023-05-16T19:31:57.397Z,64.79
2023-05-16T19:34:00.030Z,64.97
2023-05-16T19:36:05.874Z,64.70
2023-05-16T19:38:08.470Z,64.48
2023-05-16T19:40:12.739Z,64.38
2023-05-16T19:42:16.325Z,64.37
2023-05-16T19:44:18.938Z,64.41
2023-05-16T19:46:21.719Z,64.48
2023-05-16T19:48:24.432Z,64.35
2023-05-16T19:50:27.282Z,63.71
2023-05-16T19:52:31.278Z,63.63
2023-05-16T19:54:33.869Z,62.05
2023-05-16T19:56:39.286Z,62.39
2023-05-16T19:58:43.734Z,62.57
2023-05-16T20:00:47.020Z,62.38
2023-05-16T20:02:49.775Z,61.83
2023-05-16T20:04:52.520Z,61.44
2023-05-16T20:06:55.127Z,61.35
2023-05-16T20:08:59.084Z,60.56
2023-05-16T20:11:01.695Z,60.12
2023-05-16T20:13:04.350Z,59.71
2023-05-16T20:15:08.835Z,59.16
2023-05-16T20:17:11.456Z,57.84
2023-05-16T20:19:15.319Z,58.69
2023-05-16T20:21:18.079Z,58.85
2023-05-16T20:23:21.465Z,58.85
2023-05-16T20:25:25.760Z,58.29
2023-05-16T20:27:29.741Z,58.24
2023-05-16T20:29:34.613Z,58.27
2023-05-16T20:31:37.396Z,57.93
2023-05-16T20:33:40.053Z,57.96
2023-05-16T20:35:42.658Z,57.87
2023-05-16T20:37:45.254Z,58.13
2023-05-16T20:39:47.831Z,58.17
2023-05-16T20:41:51.786Z,58.49
2023-05-16T20:43:54.404Z,58.70
2023-05-16T20:45:56.993Z,58.36
2023-05-16T20:47:59.711Z,58.24
2023-05-16T20:50:02.407Z,58.11
2023-05-16T20:52:05.609Z,57.68
2023-05-16T20:54:08.193Z,57.35
2023-05-16T20:56:10.770Z,57.29
2023-05-16T20:58:15.472Z,56.91
2023-05-16T21:00:18.481Z,56.59
2023-05-16T21:02:21.053Z,56.53
2023-05-16T21:04:23.928Z,56.72
2023-05-16T21:06:26.661Z,56.48
2023-05-16T21:08:29.259Z,56.35
2023-05-16T21:10:31.897Z,56.28
2023-05-16T21:12:34.534Z,55.97
2023-05-16T21:14:38.510Z,55.75
2023-05-16T21:16:43.405Z,55.71
2023-05-16T21:18:46.134Z,56.17
2023-05-16T21:20:48.892Z,56.12
2023-05-16T21:22:51.512Z,56.06
2023-05-16T21:24:54.143Z,56.19
2023-05-16T21:26:56.828Z,56.07
2023-05-16T21:28:59.458Z,56.24
2023-05-16T21:31:03.427Z,56.11
2023-05-16T21:33:06.284Z,56.18
2023-05-16T21:35:09.621Z,56.48
2023-05-16T21:37:12.662Z,56.85
2023-05-16T21:39:15.279Z,56.74
2023-05-16T21:41:18.138Z,56.55
2023-05-16T21:43:20.901Z,56.43
2023-05-16T21:45:23.640Z,56.64
2023-05-16T21:47:27.606Z,57.25
2023-05-16T21:49:30.233Z,57.46
2023-05-16T21:51:32.836Z,57.95
2023-05-16T21:53:35.462Z,58.08
2023-05-16T21:55:38.046Z,58.19
2023-05-16T21:57:40.927Z,58.48
2023-05-16T21:59:43.523Z,58.79
2023-05-16T22:01:46.109Z,59.31
2023-05-16T22:03:50.422Z,59.09
2023-05-16T22:05:53.199Z,58.59
2023-05-16T22:07:55.887Z,57.78
2023-05-16T22:09:59.307Z,58.11
2023-05-16T22:12:01.882Z,58.09
2023-05-16T22:14:04.512Z,58.80
2023-05-16T22:16:07.761Z,59.54
2023-05-16T22:18:10.464Z,59.78
2023-05-16T22:20:14.689Z,60.52
2023-05-16T22:22:17.406Z,60.46
2023-05-16T22:24:20.011Z,60.47
2023-05-16T22:26:22.638Z,60.48
2023-05-16T22:28:25.220Z,60.06
2023-05-16T22:30:27.817Z,60.12
2023-05-16T22:32:30.617Z,59.15
2023-05-16T22:34:33.397Z,60.17
2023-05-16T22:36:37.361Z,60.24
2023-05-16T22:38:39.960Z,60.86
2023-05-16T22:40:42.539Z,62.32
2023-05-16T22:42:45.166Z,62.27
2023-05-16T22:44:47.773Z,62.42
2023-05-16T22:46:50.469Z,62.57
2023-05-16T22:48:53.159Z,62.40
2023-05-16T22:50:55.898Z,63.08
2023-05-16T22:52:59.867Z,63.26
2023-05-16T22:55:02.459Z,63.02
2023-05-16T22:57:05.405Z,63.45
2023-05-16T22:59:08.016Z,63.19
2023-05-16T23:01:10.651Z,63.76
2023-05-16T23:03:13.309Z,63.81
2023-05-16T23:05:16.012Z,63.19
2023-05-16T23:07:18.740Z,63.56
2023-05-16T23:09:22.709Z,63.79
2023-05-16T23:11:25.331Z,63.99
2023-05-16T23:13:28.109Z,64.91
2023-05-16T23:15:30.949Z,64.86
2023-05-16T23:17:33.754Z,64.04
2023-05-16T23:19:36.449Z,64.32
2023-05-16T23:21:39.979Z,63.59
2023-05-16T23:23:42.658Z,64.11
2023-05-16T23:25:48.577Z,64.21
2023-05-16T23:27:51.204Z,64.29
2023-05-16T23:29:53.910Z,65.11
2023-05-16T23:31:56.550Z,64.38
2023-05-16T23:33:59.280Z,64.54
2023-05-16T23:36:01.930Z,64.25
2023-05-16T23:38:04.515Z,64.46
2023-05-16T23:40:08.542Z,64.25
2023-05-16T23:42:12.767Z,63.87
2023-05-16T23:44:15.350Z,63.62
2023-05-16T23:46:18.002Z,63.06
2023-05-16T23:48:20.689Z,62.84
2023-05-16T23:50:23.688Z,64.03
2023-05-16T23:52:26.364Z,63.56
2023-05-16T23:54:29.039Z,63.42
2023-05-16T23:56:32.942Z,63.86
2023-05-16T23:58:36.900Z,63.89
